LEPO2: Verdigris, River, Lenapah, OK

Data processed at Sat Nov 17 2018 21:32


All information presented herein is the property of the government of the United States of America and may be revised or deleted at any time without prior notice.
Dissemination of this information without the expressed written consent of the Public Affairs Office, Tulsa District U.S. Army Corps of Engineers is strictly prohibited.
These data are gathered electronically and, as presented, have not undergone any form of quality control. These data are not guaranteed to be valid or correct.
Go to home page.
Go to station list.
Go to home page.

Upstream stations:

Downstream station:
Previous Day
Next Day
Current Day
    
SHEF ID:       LEPO2     Verdigris River near Lenapah, OK
STATION TYPE:  

               PRECIP     STAGE  STAGE(2)  RIV-FLOW   VOLTAGE  BAT-LOAD
                   in        ft        ft       cfs      volt      volt
              Ccp-Rev   Ccp-Rev   Ccp-Rev   Ccp-Rev   Ccp-Rev   Ccp-Rev
(US/Central)
11/17 00:00      0.00      5.54      5.59       852     12.90     11.66
11/17 01:00      0.00      5.54      5.60       852     12.90     11.60
11/17 02:00      0.00      5.56      5.61       868     12.90     11.60
11/17 03:00      0.00      5.57      5.62       876     12.90     11.60
11/17 04:00      0.00      5.57      5.63       876     12.80     11.60
11/17 05:00      0.00      5.58      5.64       884     12.80     11.54
11/17 06:00      0.00      5.60      5.65       900     12.80     11.54
11/17 07:00      0.00      5.60      5.66       900     12.80     11.54
11/17 08:00      0.00      5.61      5.66       909     13.00     11.48
11/17 09:00      0.00      5.61      5.66       909     13.30     11.66
11/17 10:00      0.00      5.62      5.67       917     13.50     12.01
11/17 11:00      0.00      5.63      5.67       925     13.60     12.13
11/17 12:00      0.00      5.62      5.67       917     13.60     12.24
11/17 13:00      0.00      5.62      5.67       917     13.60     12.24
11/17 14:00      0.00      5.64      5.67       934     13.90     12.19
11/17 15:00      0.00      5.64      5.68       934     14.00     12.48
11/17 16:00      0.00      5.63      5.68       925     13.90     12.42
11/17 17:00      0.00      5.65      5.69       942     13.30     12.42
11/17 18:00      0.00      5.64      5.69       934     13.10     11.95
11/17 19:00      0.00      5.64      5.69       934     13.00     11.77
11/17 20:00      0.00      5.65      5.70       942     13.00     11.72
11/17 21:00      0.00      5.63      5.67       925     13.00     11.72
11/17 22:00      ----      ----      ----      ----      ----      ----
11/17 23:00      ----      ----      ----      ----      ----      ----